Timeline UpdatesTrip UpdatesNews PostsPvt PostsTravel TipsAdmin PostsConv PostsFollowed PostsChat RequestsBlog PostsPNR Posts

Disclaimer
Search
 
 
Thu Jul 31, 2014 19:01:32 ISTHomeTrainsΣChainsAtlasPNRForumGalleryNewsFAQTripsMembersLoginFeedback
No Recent News for this Train
Other Trains in the News **new
Latest...
Temporarily Cancelled between Bandikui-Tundla from 1/11/13 to 15/12/13 due to power and traffic block between Agra City-Yamuna Bridge route
Mon Nov 25, 2013 (09:15AM)
⇐ Return Journey: Train# 54462

54461/Bandikui Bareilly Passenger (UnReserved)

Sep 12 2013 (12:56PM)
Change Departure Station:
Change Arrival Station:
Post a Train Travel TipPost a Train Travel Tip **new
Post a Comment/Question/Picture/VideoPost a Comment/Question/Picture/Video
Pantry/Catering
???
Loco/Rake Reversals
TDL/Tundla Junction (5);
RSA - Rake Sharing
Rake/Coach Composition
Loco
News    PNR    Forum    Time-Table    Availability    Fare Chart    Map    Arr/Dep History    Trips    Gallery    ΣChains    X/O    Timeline    
Travel Time: 4h 50m    24 halts    Distance: 162 km    Avg Speed: 33 km/hr
Type: Passenger
Zone: NR/Northern
Departs @ 14:50 (Avg 6m late)
Platform# ???
SMTWTFS
Bandikui Junction/BKI 
Arrives @ 19:40 (Avg 1h 29m late)
Platform# ???
SMTWTFS
Kuberpur/KBP 

24 halts. 24 intermediate Stations between Bandikui Junction and Kuberpur

Show ALL intermediate Stations  Show Old Time-Table

#CodeStation NameX/OArrivesAvgDepartsAvgHaltPFDay#KmSpeedElevZoneAddress
1BKI»Bandikui Junction (6)»  -14:50+6--10.0101283mNWRBandikui, Rajasthan
2SHGNShri Ghasinagar (1)  14:59-15:00-1m1115.242263mNCRBandikui, Rajasthan
3BWBiwai (1)  15:06+3115:07+331m1119.436256mNCRBandikui, Rajasthan
4BJRABhajera (1)  15:14-15:15-1m1123.510253mNCRMandawar, Rajasthan
5KPOKaranpura (1)X  15:20+3215:21+381m1124.426252mNCRBandikui, Rajasthan
6BUDABhuda (1)  15:27-15:28-1m1127.049253mNCRKheril, Rajasthan
7MURDMandawar Mahwa Road (1)  15:34+3415:35+391m1131.955242mNCRMandawar, Rajasthan
8GOSGhosrana (1)  15:43+4215:44+491m1139.254230mNCRKheril, Rajasthan
9DTFDantla (1)  15:51-15:52-1m1145.648224mNCRDantia, Rajasthan
10KLKherli (1)  16:00+4216:01+481m1152.054219mNCRKherli, Rajasthan
11TBLTarchhera Baraoliran (1)  16:10-16:11-1m1160.162210mNCRTalchherra, Rajasthan
12NBINadbai (1)  16:19+5716:20+1:051m1168.347203mNCRNadbai, Rajasthan
13PPEAPaprera (1)  16:33-16:34-1m1178.556187mNCRNadbai, Rajasthan
14HKHelak (1)O  16:41+1:0716:42+1:091m1185.059183mNCRBharatpur, Rajasthan
15BTEBharatpur Junction (5)  16:54+5016:59+515m--196.850174mWCRBharatpur, Rajasthan
16NHBNoh Bachhamdi (1)  17:07-17:08-1m11103.556174mNCRBharatpur, Rajasthan
17IKIkran (1)X  17:14+1:1317:15+1:161m11109.146171mNCRBharatpur, Rajasthan
18CIKChiksana (1)X  17:22+1:1717:23+1:221m11114.449177mNCRBharatpur, Rajasthan
19AHAchhnera Junction (3)  17:35+1:1917:40+1:205m--1124.247170mNCRAgra District, Uttar Pradesh
20RAIRaibha (1)  17:46+1:2417:47+1:311m11128.854171mNCRBichpuri, Uttar Pradesh
21BCPBichpuri (1)XO  17:59+1:3018:00+1:391m11139.716176mNCRAgra District, Uttar Pradesh
22IDHIdgah Agra Junction (3)X  18:31+1:2218:33+1:282m--1148.06168mNCRAgra, Uttar Pradesh
23AFAgra Fort (3)XO  18:55+1:0519:00+1:175m21150.28170mNCRRakabganj, Uttar Pradesh
24JABYamuna Bridge Agra (3)X  19:19+1:2619:20+1:271m11152.631168mNCRAgra, Uttar Pradesh
25CHLRChhalesar (2)  19:31+1:2519:32+1:291m--1158.431166mNCRDistrict Agra, Uttar Pradesh
26KBP•Kuberpur (2)•X  19:40+1:2919:41+1:321m--1162.437170mNCRNational Highway 2, Uttar Pradesh
27ETUEEtmadpur (3)O  19:52+1:3219:53+1:421m--1169.37166mNCREtmadpur, Uttar Pradesh
28TDLTundla Junction (5)X20:25+1:2521:10+1:3845m--1173.146167mNCRDistt.Firozabad, Uttar Pradesh
29MTIMitawali (1)  21:19+2:0221:20+2:031m11179.968169mNCRMitawali, Uttar Pradesh
30BRNBarhan JunctionX  21:27+1:5021:28+1:521m--1187.868173mNCRJN Point-Tundle/Aligarh/Etah, Uttar Pradesh
31CMRChamrola (1)X  21:34+2:0721:35+2:091m11194.664174mNCRMDR 106W, Uttar Pradesh
32JLSJalesar Road (1)X  21:41+2:1421:42+2:141m11201.073172mNCRMDR 106W, Uttar Pradesh
33PORAPora (2)XO  21:50+2:0621:51+2:071m--1210.717179mNCRHathras, Uttar Pradesh
34HRSHathras Junction (3)X  22:28+1:5322:30+1:552m--1221.122183mNCRMahamaya Nagar(05722-242803), Uttar Pradesh
35SNSSasni (3)  22:54+1:4222:55+1:431m--1230.023185mNCRSasni, Uttar Pradesh
36MXKMandrak (2)X  23:14+1:3723:15+1:521m--1237.429190mNCRNational Highway 93, Uttar Pradesh
37DAQDaud Khan (3)X  23:29+1:4823:30+1:561m--1244.228189mNCRNational Highway 91, Uttar Pradesh
38ALJNAligarh Junction (4)  23:45+1:1423:55+1:2210m31251.241192mNCRAligarh, Uttar Pradesh
39MZGIManzurgarhi (2)O  00:08+2:2500:10+2:282m--2260.233188mNCRAligarh, Uttar Pradesh
40HGJHarduaganj (1)O  00:18+2:2800:20+2:302m12264.662195mNCRAligarh, Uttar Pradesh
41AURAtrauli Road (1)O  00:35+2:4300:37+2:442m12280.255190mNRDibai, Uttar Pradesh
42DIBDibai (2)O  00:51+2:3700:53+2:372m--2293.142190mNRDibai, Uttar Pradesh
43RGRajghat Narora (1)XO  01:03+2:1301:05+2:142m12300.019191mNRBabrala, Uttar Pradesh
44BBABabrala (1)  01:24+2:3301:27+2:333m12305.952186mNRBabrala, Uttar Pradesh
45BJBahjoi  01:58+2:3002:00+2:322m--2332.733194mNRBahjoi, Uttar Pradesh
46CHChandausi Junction (3)O  02:30+2:1903:15+2:2645m--2349.432193mNRChandausi, Uttar Pradesh
47AFRAsafpur  03:41+2:2703:43+2:282m--2363.142186mNRDist. Badaun, Uttar Pradesh
48DUBDabtara (2)  03:58+2:2504:00+2:272m22373.640183mNRBisauli, Uttar Pradesh
49KEGKarengi  04:08+2:2604:10+2:332m--2378.947183mNRKarengi, Uttar Pradesh
50RBKReoti B Khera (1)  04:19-04:20-1m12385.949177mNRReoti B Khera, Uttar Pradesh
51AOAonla (2)X  04:27+2:3304:32+2:395m--2391.633176mNRDist. Bareilly, Uttar Pradesh
52NSUNisui  04:44-04:46-2m--2398.240167mNRAonla- Bareilly Link Rd, Uttar Pradesh
53BTGBasharatGanj  04:53+2:3504:55+2:382m--2402.942167mNRBareilly, Uttar Pradesh
54RGBRamganga  05:08+2:3705:10+2:382m--2412.06170mNRState Highway 33, Uttar Pradesh
55BEBareilly Junction (4)  06:20+1:55-32418.5-174mNRBareilly, Uttar Pradesh
Scroll to Top
Scroll to Bottom